sensor_id;sensor_type;location;lat;lon;timestamp;pressure;altitude;pressure_sealevel;temperature;humidity
78855;BME280;68206;59.956;30.234;2024-01-25T00:01:47;99297.41;;;9.20;46.58
78855;BME280;68206;59.956;30.234;2024-01-25T00:04:16;99293.91;;;9.19;46.47
78855;BME280;68206;59.956;30.234;2024-01-25T00:06:45;99290.31;;;9.20;46.59
78855;BME280;68206;59.956;30.234;2024-01-25T00:09:14;99287.75;;;9.19;46.87
78855;BME280;68206;59.956;30.234;2024-01-25T00:11:43;99285.03;;;9.20;46.60
78855;BME280;68206;59.956;30.234;2024-01-25T00:14:11;99287.69;;;9.20;46.59
78855;BME280;68206;59.956;30.234;2024-01-25T00:16:40;99294.75;;;9.20;46.73
78855;BME280;68206;59.956;30.234;2024-01-25T00:19:09;99295.63;;;9.20;46.35
78855;BME280;68206;59.956;30.234;2024-01-25T00:21:41;99295.69;;;9.19;46.60
78855;BME280;68206;59.956;30.234;2024-01-25T00:24:12;99295.69;;;9.19;46.66
78855;BME280;68206;59.956;30.234;2024-01-25T00:26:40;99296.53;;;9.19;46.68
78855;BME280;68206;59.956;30.234;2024-01-25T00:29:09;99298.31;;;9.19;46.32
78855;BME280;68206;59.956;30.234;2024-01-25T00:31:37;99311.50;;;9.20;46.57
78855;BME280;68206;59.956;30.234;2024-01-25T00:34:06;99294.00;;;9.18;46.51
78855;BME280;68206;59.956;30.234;2024-01-25T00:36:35;99293.91;;;9.19;46.84
78855;BME280;68206;59.956;30.234;2024-01-25T00:39:05;99298.31;;;9.19;46.40
78855;BME280;68206;59.956;30.234;2024-01-25T00:41:35;99296.53;;;9.19;46.60
78855;BME280;68206;59.956;30.234;2024-01-25T00:44:04;99302.69;;;9.20;46.56
78855;BME280;68206;59.956;30.234;2024-01-25T00:46:33;99301.84;;;9.19;46.13
78855;BME280;68206;59.956;30.234;2024-01-25T00:49:02;99299.19;;;9.19;46.28
78855;BME280;68206;59.956;30.234;2024-01-25T00:51:31;99290.50;;;9.17;46.88
78855;BME280;68206;59.956;30.234;2024-01-25T00:54:00;99297.41;;;9.20;46.63
78855;BME280;68206;59.956;30.234;2024-01-25T00:56:29;99303.56;;;9.20;46.54
78855;BME280;68206;59.956;30.234;2024-01-25T00:58:59;99311.50;;;9.20;46.60
78855;BME280;68206;59.956;30.234;2024-01-25T01:01:28;99313.22;;;9.21;46.78
78855;BME280;68206;59.956;30.234;2024-01-25T01:03:58;99316.78;;;9.20;46.53
78855;BME280;68206;59.956;30.234;2024-01-25T01:06:27;99306.19;;;9.20;46.57
78855;BME280;68206;59.956;30.234;2024-01-25T01:08:56;99308.84;;;9.20;46.54
78855;BME280;68206;59.956;30.234;2024-01-25T01:11:26;99305.28;;;9.21;46.08
78855;BME280;68206;59.956;30.234;2024-01-25T01:13:55;99314.06;;;9.22;46.65
78855;BME280;68206;59.956;30.234;2024-01-25T01:16:26;99311.44;;;9.22;46.65
78855;BME280;68206;59.956;30.234;2024-01-25T01:18:54;99320.22;;;9.22;46.67
78855;BME280;68206;59.956;30.234;2024-01-25T01:21:23;99322.88;;;9.22;46.33
78855;BME280;68206;59.956;30.234;2024-01-25T01:23:51;99312.28;;;9.22;46.27
78855;BME280;68206;59.956;30.234;2024-01-25T01:26:19;99318.44;;;9.23;46.55
78855;BME280;68206;59.956;30.234;2024-01-25T01:28:47;99314.00;;;9.23;46.58
78855;BME280;68206;59.956;30.234;2024-01-25T01:31:16;99318.44;;;9.23;46.42
78855;BME280;68206;59.956;30.234;2024-01-25T01:33:46;99317.50;;;9.24;46.44
78855;BME280;68206;59.956;30.234;2024-01-25T01:36:15;99310.50;;;9.23;46.48
78855;BME280;68206;59.956;30.234;2024-01-25T01:38:43;99308.72;;;9.23;46.33
78855;BME280;68206;59.956;30.234;2024-01-25T01:41:11;99317.56;;;9.22;45.96
78855;BME280;68206;59.956;30.234;2024-01-25T01:43:40;99317.56;;;9.22;46.56
78855;BME280;68206;59.956;30.234;2024-01-25T01:46:10;99315.78;;;9.23;46.51
78855;BME280;68206;59.956;30.234;2024-01-25T01:48:39;99318.44;;;9.23;46.58
78855;BME280;68206;59.956;30.234;2024-01-25T01:51:09;99319.31;;;9.23;46.44
78855;BME280;68206;59.956;30.234;2024-01-25T01:53:39;99327.22;;;9.23;46.41
78855;BME280;68206;59.956;30.234;2024-01-25T01:56:08;99329.88;;;9.23;46.27
78855;BME280;68206;59.956;30.234;2024-01-25T01:58:38;99325.50;;;9.22;46.52
78855;BME280;68206;59.956;30.234;2024-01-25T02:01:07;99323.78;;;9.21;46.22
78855;BME280;68206;59.956;30.234;2024-01-25T02:03:35;99320.28;;;9.21;46.49
78855;BME280;68206;59.956;30.234;2024-01-25T02:06:04;99322.88;;;9.22;46.23
78855;BME280;68206;59.956;30.234;2024-01-25T02:08:35;99322.88;;;9.22;46.09
78855;BME280;68206;59.956;30.234;2024-01-25T02:11:04;99322.00;;;9.22;46.35
78855;BME280;68206;59.956;30.234;2024-01-25T02:13:32;99321.16;;;9.21;46.26
78855;BME280;68206;59.956;30.234;2024-01-25T02:16:00;99326.44;;;9.21;46.45
78855;BME280;68206;59.956;30.234;2024-01-25T02:18:49;99324.78;;;9.19;46.46
78855;BME280;68206;59.956;30.234;2024-01-25T02:21:18;99338.75;;;9.22;46.37
78855;BME280;68206;59.956;30.234;2024-01-25T02:23:48;99336.09;;;9.22;46.10
78855;BME280;68206;59.956;30.234;2024-01-25T02:26:16;99344.03;;;9.22;46.38
78855;BME280;68206;59.956;30.234;2024-01-25T02:28:45;99331.03;;;9.18;46.67
78855;BME280;68206;59.956;30.234;2024-01-25T02:31:12;99345.81;;;9.22;45.97
78855;BME280;68206;59.956;30.234;2024-01-25T02:33:41;99345.81;;;9.22;46.24
78855;BME280;68206;59.956;30.234;2024-01-25T02:36:09;99342.31;;;9.21;46.03
78855;BME280;68206;59.956;30.234;2024-01-25T02:38:37;99347.72;;;9.18;46.30
78855;BME280;68206;59.956;30.234;2024-01-25T02:41:07;99351.97;;;9.22;45.92
78855;BME280;68206;59.956;30.234;2024-01-25T02:43:36;99356.41;;;9.22;46.22
78855;BME280;68206;59.956;30.234;2024-01-25T02:46:04;99365.25;;;9.21;46.27
78855;BME280;68206;59.956;30.234;2024-01-25T02:48:33;99360.75;;;9.23;46.16
78855;BME280;68206;59.956;30.234;2024-01-25T02:51:01;99363.47;;;9.21;46.19
78855;BME280;68206;59.956;30.234;2024-01-25T02:53:30;99359.97;;;9.21;46.25
78855;BME280;68206;59.956;30.234;2024-01-25T02:55:58;99366.13;;;9.21;46.41
78855;BME280;68206;59.956;30.234;2024-01-25T02:58:28;99374.06;;;9.21;46.32
78855;BME280;68206;59.956;30.234;2024-01-25T03:00:57;99374.13;;;9.20;45.98
78855;BME280;68206;59.956;30.234;2024-01-25T03:03:26;99374.97;;;9.20;45.77
78855;BME280;68206;59.956;30.234;2024-01-25T03:05:54;99374.06;;;9.21;46.29
78855;BME280;68206;59.956;30.234;2024-01-25T03:08:23;99375.84;;;9.21;46.26
78855;BME280;68206;59.956;30.234;2024-01-25T03:10:51;99372.31;;;9.20;46.17
78855;BME280;68206;59.956;30.234;2024-01-25T03:13:20;99382.91;;;9.20;46.45
78855;BME280;68206;59.956;30.234;2024-01-25T03:15:51;99392.56;;;9.21;46.61
78855;BME280;68206;59.956;30.234;2024-01-25T03:18:19;99387.28;;;9.21;46.27
78855;BME280;68206;59.956;30.234;2024-01-25T03:20:47;99384.63;;;9.21;46.63
78855;BME280;68206;59.956;30.234;2024-01-25T03:23:18;99386.41;;;9.21;46.34
78855;BME280;68206;59.956;30.234;2024-01-25T03:25:47;99388.19;;;9.20;46.15
78855;BME280;68206;59.956;30.234;2024-01-25T03:28:15;99390.84;;;9.20;46.36
78855;BME280;68206;59.956;30.234;2024-01-25T03:30:46;99401.44;;;9.20;46.43
78855;BME280;68206;59.956;30.234;2024-01-25T03:33:16;99399.66;;;9.21;46.61
78855;BME280;68206;59.956;30.234;2024-01-25T03:35:44;99404.06;;;9.20;46.24
78855;BME280;68206;59.956;30.234;2024-01-25T03:38:12;99405.78;;;9.21;46.07
78855;BME280;68206;59.956;30.234;2024-01-25T03:40:41;99405.84;;;9.20;46.14
78855;BME280;68206;59.956;30.234;2024-01-25T03:43:11;99412.00;;;9.20;46.32
78855;BME280;68206;59.956;30.234;2024-01-25T03:45:48;99410.22;;;9.21;46.47
78855;BME280;68206;59.956;30.234;2024-01-25T03:48:19;99415.56;;;9.19;46.22
78855;BME280;68206;59.956;30.234;2024-01-25T03:50:49;99420.00;;;9.19;46.24
78855;BME280;68206;59.956;30.234;2024-01-25T03:53:17;99415.56;;;9.19;46.08
78855;BME280;68206;59.956;30.234;2024-01-25T03:55:46;99420.88;;;9.19;46.59
78855;BME280;68206;59.956;30.234;2024-01-25T03:58:17;99415.66;;;9.18;46.37
78855;BME280;68206;59.956;30.234;2024-01-25T04:00:46;99420.97;;;9.18;46.01
78855;BME280;68206;59.956;30.234;2024-01-25T04:03:15;99423.66;;;9.16;46.33
78855;BME280;68206;59.956;30.234;2024-01-25T04:05:45;99421.94;;;9.15;46.14
78855;BME280;68206;59.956;30.234;2024-01-25T04:08:14;99423.78;;;9.13;46.07
78855;BME280;68206;59.956;30.234;2024-01-25T04:10:42;99430.94;;;9.11;46.39
78855;BME280;68206;59.956;30.234;2024-01-25T04:13:10;99438.03;;;9.11;46.17
78855;BME280;68206;59.956;30.234;2024-01-25T04:15:39;99441.66;;;9.08;46.18
78855;BME280;68206;59.956;30.234;2024-01-25T04:18:07;99439.94;;;9.07;46.27
78855;BME280;68206;59.956;30.234;2024-01-25T04:20:36;99444.44;;;9.05;46.76
78855;BME280;68206;59.956;30.234;2024-01-25T04:23:07;99439.28;;;9.02;46.30
78855;BME280;68206;59.956;30.234;2024-01-25T04:25:38;99453.41;;;9.01;46.50
78855;BME280;68206;59.956;30.234;2024-01-25T04:28:09;99457.94;;;8.99;46.47
78855;BME280;68206;59.956;30.234;2024-01-25T05:03:07;99503.97;;;8.73;46.88
78855;BME280;68206;59.956;30.234;2024-01-25T06:10:21;99575.31;;;8.52;47.75
78855;BME280;68206;59.956;30.234;2024-01-25T09:17:12;99884.94;;;8.89;47.36
78855;BME280;68206;59.956;30.234;2024-01-25T10:19:42;99978.84;;;9.01;47.21
78855;BME280;68206;59.956;30.234;2024-01-25T12:22:21;100189.53;;;8.74;47.75
78855;BME280;68206;59.956;30.234;2024-01-25T15:29:13;100532.13;;;8.07;48.99
78855;BME280;68206;59.956;30.234;2024-01-25T16:27:30;100639.00;;;7.91;48.91
78855;BME280;68206;59.956;30.234;2024-01-25T17:24:13;100735.22;;;7.75;46.56
78855;BME280;68206;59.956;30.234;2024-01-25T17:26:42;100745.78;;;7.75;46.90
78855;BME280;68206;59.956;30.234;2024-01-25T17:29:12;100744.94;;;7.73;47.27
78855;BME280;68206;59.956;30.234;2024-01-25T17:31:41;100746.69;;;7.74;47.05
78855;BME280;68206;59.956;30.234;2024-01-25T17:34:09;100749.34;;;7.74;47.32
78855;BME280;68206;59.956;30.234;2024-01-25T17:36:42;100756.38;;;7.73;46.60
78855;BME280;68206;59.956;30.234;2024-01-25T17:39:10;100743.34;;;7.62;45.98
78855;BME280;68206;59.956;30.234;2024-01-25T17:41:41;100742.75;;;7.47;46.50
78855;BME280;68206;59.956;30.234;2024-01-25T17:44:09;100734.25;;;7.29;45.94
78855;BME280;68206;59.956;30.234;2024-01-25T17:46:38;100746.78;;;7.12;46.49
78855;BME280;68206;59.956;30.234;2024-01-25T17:49:08;100743.53;;;6.97;47.43
78855;BME280;68206;59.956;30.234;2024-01-25T17:51:37;100755.13;;;6.83;47.97
78855;BME280;68206;59.956;30.234;2024-01-25T17:54:06;100756.19;;;6.70;47.91
78855;BME280;68206;59.956;30.234;2024-01-25T17:56:37;100766.00;;;6.58;47.58
78855;BME280;68206;59.956;30.234;2024-01-25T17:59:07;100769.69;;;6.46;48.82
78855;BME280;68206;59.956;30.234;2024-01-25T18:01:37;100769.81;;;6.37;48.11
78855;BME280;68206;59.956;30.234;2024-01-25T18:04:05;100788.34;;;6.26;48.64
78855;BME280;68206;59.956;30.234;2024-01-25T18:06:34;100788.41;;;6.19;48.49
78855;BME280;68206;59.956;30.234;2024-01-25T18:09:03;100806.97;;;6.10;49.27
78855;BME280;68206;59.956;30.234;2024-01-25T18:11:31;100814.84;;;6.11;49.02
78855;BME280;68206;59.956;30.234;2024-01-25T18:14:00;100812.13;;;6.19;48.43
78855;BME280;68206;59.956;30.234;2024-01-25T18:16:30;100814.66;;;6.29;48.98
78855;BME280;68206;59.956;30.234;2024-01-25T18:18:58;100819.81;;;6.38;47.84
78855;BME280;68206;59.956;30.234;2024-01-25T18:21:27;100824.97;;;6.49;47.76
78855;BME280;68206;59.956;30.234;2024-01-25T18:23:57;100825.75;;;6.57;48.07
78855;BME280;68206;59.956;30.234;2024-01-25T18:26:27;100814.25;;;6.66;48.16
78855;BME280;68206;59.956;30.234;2024-01-25T18:28:56;100835.25;;;6.72;47.31
78855;BME280;68206;59.956;30.234;2024-01-25T18:31:25;100843.94;;;6.80;47.91
78855;BME280;68206;59.956;30.234;2024-01-25T18:33:55;100843.00;;;6.85;47.25
78855;BME280;68206;59.956;30.234;2024-01-25T18:36:24;100846.38;;;6.94;46.84
78855;BME280;68206;59.956;30.234;2024-01-25T18:38:52;100853.38;;;6.98;46.80
78855;BME280;68206;59.956;30.234;2024-01-25T18:41:21;100855.94;;;7.04;46.85
78855;BME280;68206;59.956;30.234;2024-01-25T18:43:49;100863.78;;;7.08;46.86
78855;BME280;68206;59.956;30.234;2024-01-25T18:46:18;100868.97;;;7.13;47.07
78855;BME280;68206;59.956;30.234;2024-01-25T18:48:46;100875.13;;;7.16;46.29
78855;BME280;68206;59.956;30.234;2024-01-25T18:51:16;100882.06;;;7.22;46.27
78855;BME280;68206;59.956;30.234;2024-01-25T18:53:45;100885.53;;;7.25;46.07
78855;BME280;68206;59.956;30.234;2024-01-25T18:56:15;100882.84;;;7.30;46.28
78855;BME280;68206;59.956;30.234;2024-01-25T18:58:53;100884.56;;;7.33;46.05
78855;BME280;68206;59.956;30.234;2024-01-25T19:01:23;100890.69;;;7.36;45.24
78855;BME280;68206;59.956;30.234;2024-01-25T19:03:52;100890.63;;;7.39;45.44
78855;BME280;68206;59.956;30.234;2024-01-25T19:06:26;100885.31;;;7.42;45.87
78855;BME280;68206;59.956;30.234;2024-01-25T19:08:56;100879.97;;;7.45;45.20
78855;BME280;68206;59.956;30.234;2024-01-25T19:11:25;100889.63;;;7.48;45.78
78855;BME280;68206;59.956;30.234;2024-01-25T19:13:53;100893.09;;;7.50;45.27
78855;BME280;68206;59.956;30.234;2024-01-25T19:16:23;100891.31;;;7.52;45.29
78855;BME280;68206;59.956;30.234;2024-01-25T19:18:51;100897.47;;;7.54;44.91
78855;BME280;68206;59.956;30.234;2024-01-25T19:21:20;100905.38;;;7.55;44.02
78855;BME280;68206;59.956;30.234;2024-01-25T19:23:49;100908.81;;;7.59;44.98
78855;BME280;68206;59.956;30.234;2024-01-25T19:26:18;100918.50;;;7.58;44.95
78855;BME280;68206;59.956;30.234;2024-01-25T19:28:46;100915.84;;;7.61;44.56
78855;BME280;68206;59.956;30.234;2024-01-25T19:31:18;100916.66;;;7.63;44.17
78855;BME280;68206;59.956;30.234;2024-01-25T19:33:46;100921.94;;;7.65;43.61
78855;BME280;68206;59.956;30.234;2024-01-25T19:36:15;100928.06;;;7.65;44.25
78855;BME280;68206;59.956;30.234;2024-01-25T19:38:43;100921.91;;;7.66;44.29
78855;BME280;68206;59.956;30.234;2024-01-25T19:41:13;100921.91;;;7.68;43.62
78855;BME280;68206;59.956;30.234;2024-01-25T19:43:42;100932.41;;;7.69;43.55
78855;BME280;68206;59.956;30.234;2024-01-25T19:46:10;100919.28;;;7.66;44.16
78855;BME280;68206;59.956;30.234;2024-01-25T19:48:39;100936.81;;;7.70;44.20
78855;BME280;68206;59.956;30.234;2024-01-25T19:51:08;100938.56;;;7.70;43.50
78855;BME280;68206;59.956;30.234;2024-01-25T19:53:36;100943.84;;;7.72;43.02
78855;BME280;68206;59.956;30.234;2024-01-25T19:56:05;100951.75;;;7.72;43.27
78855;BME280;68206;59.956;30.234;2024-01-25T19:58:36;100954.38;;;7.72;43.88
78855;BME280;68206;59.956;30.234;2024-01-25T20:01:05;100961.41;;;7.73;43.74
78855;BME280;68206;59.956;30.234;2024-01-25T20:03:34;100963.19;;;7.74;43.52
78855;BME280;68206;59.956;30.234;2024-01-25T20:06:04;100976.38;;;7.74;43.08
78855;BME280;68206;59.956;30.234;2024-01-25T20:08:34;100968.44;;;7.74;42.91
78855;BME280;68206;59.956;30.234;2024-01-25T20:11:03;100977.25;;;7.73;42.71
78855;BME280;68206;59.956;30.234;2024-01-25T20:13:31;100976.31;;;7.75;42.85
78855;BME280;68206;59.956;30.234;2024-01-25T20:16:04;100972.81;;;7.75;43.46
78855;BME280;68206;59.956;30.234;2024-01-25T20:18:33;100977.25;;;7.74;43.36
78855;BME280;68206;59.956;30.234;2024-01-25T20:21:04;100973.72;;;7.74;42.47
78855;BME280;68206;59.956;30.234;2024-01-25T20:23:32;100971.97;;;7.73;42.51
78855;BME280;68206;59.956;30.234;2024-01-25T20:26:01;100987.81;;;7.73;43.14
78855;BME280;68206;59.956;30.234;2024-01-25T20:28:29;100979.88;;;7.74;42.09
78855;BME280;68206;59.956;30.234;2024-01-25T20:30:58;100979.00;;;7.74;42.58
78855;BME280;68206;59.956;30.234;2024-01-25T20:33:28;100994.84;;;7.74;41.98
78855;BME280;68206;59.956;30.234;2024-01-25T20:35:57;100997.50;;;7.74;42.59
78855;BME280;68206;59.956;30.234;2024-01-25T20:38:25;100990.47;;;7.73;42.21
78855;BME280;68206;59.956;30.234;2024-01-25T20:40:53;100991.38;;;7.68;42.20
78855;BME280;68206;59.956;30.234;2024-01-25T20:43:22;100998.38;;;7.73;42.54
78855;BME280;68206;59.956;30.234;2024-01-25T20:45:50;100996.63;;;7.72;42.60
78855;BME280;68206;59.956;30.234;2024-01-25T20:48:20;101010.72;;;7.72;42.58
78855;BME280;68206;59.956;30.234;2024-01-25T20:50:51;101011.59;;;7.73;42.80
78855;BME280;68206;59.956;30.234;2024-01-25T20:53:20;101005.44;;;7.72;41.83
78855;BME280;68206;59.956;30.234;2024-01-25T20:55:50;101006.31;;;7.71;41.92
78855;BME280;68206;59.956;30.234;2024-01-25T20:58:18;101020.38;;;7.73;42.28
78855;BME280;68206;59.956;30.234;2024-01-25T21:00:47;101027.41;;;7.74;41.66
78855;BME280;68206;59.956;30.234;2024-01-25T21:03:16;101035.34;;;7.73;42.21
78855;BME280;68206;59.956;30.234;2024-01-25T21:05:45;101027.41;;;7.73;41.56
78855;BME280;68206;59.956;30.234;2024-01-25T21:08:16;101034.47;;;7.72;42.09
78855;BME280;68206;59.956;30.234;2024-01-25T21:10:44;101024.78;;;7.73;41.47
78855;BME280;68206;59.956;30.234;2024-01-25T21:13:13;101038.88;;;7.72;41.44
78855;BME280;68206;59.956;30.234;2024-01-25T21:15:42;101042.38;;;7.74;42.03
78855;BME280;68206;59.956;30.234;2024-01-25T21:18:10;101044.13;;;7.73;41.45
78855;BME280;68206;59.956;30.234;2024-01-25T21:20:39;101045.91;;;7.73;41.01
78855;BME280;68206;59.956;30.234;2024-01-25T21:23:08;101052.06;;;7.73;42.13
78855;BME280;68206;59.956;30.234;2024-01-25T21:25:38;101052.06;;;7.73;41.53
78855;BME280;68206;59.956;30.234;2024-01-25T21:28:07;101057.34;;;7.73;41.71
78855;BME280;68206;59.956;30.234;2024-01-25T21:30:35;101059.13;;;7.71;41.16
78855;BME280;68206;59.956;30.234;2024-01-25T21:33:04;101066.16;;;7.72;40.61
78855;BME280;68206;59.956;30.234;2024-01-25T21:35:32;101062.63;;;7.72;41.22
78855;BME280;68206;59.956;30.234;2024-01-25T21:38:01;101072.31;;;7.71;41.05
78855;BME280;68206;59.956;30.234;2024-01-25T21:40:29;101083.75;;;7.70;40.54
78855;BME280;68206;59.956;30.234;2024-01-25T21:42:59;101083.81;;;7.67;40.57
78855;BME280;68206;59.956;30.234;2024-01-25T21:45:28;101072.38;;;7.68;40.75
78855;BME280;68206;59.956;30.234;2024-01-25T21:47:57;101095.25;;;7.67;40.53
78855;BME280;68206;59.956;30.234;2024-01-25T21:50:26;101097.88;;;7.67;40.64
78855;BME280;68206;59.956;30.234;2024-01-25T21:52:54;101109.31;;;7.68;41.29
78855;BME280;68206;59.956;30.234;2024-01-25T21:55:23;101098.78;;;7.66;41.42
78855;BME280;68206;59.956;30.234;2024-01-25T21:57:52;101104.94;;;7.67;41.38
78855;BME280;68206;59.956;30.234;2024-01-25T22:00:26;101116.38;;;7.67;40.87
78855;BME280;68206;59.956;30.234;2024-01-25T22:02:55;101117.25;;;7.68;41.65
78855;BME280;68206;59.956;30.234;2024-01-25T22:05:24;101127.81;;;7.68;40.98
78855;BME280;68206;59.956;30.234;2024-01-25T22:07:53;101119.88;;;7.68;40.99
78855;BME280;68206;59.956;30.234;2024-01-25T22:10:24;101122.53;;;7.66;41.73
78855;BME280;68206;59.956;30.234;2024-01-25T22:12:53;101125.16;;;7.66;41.33
78855;BME280;68206;59.956;30.234;2024-01-25T22:15:21;101132.16;;;7.69;41.87
78855;BME280;68206;59.956;30.234;2024-01-25T22:17:51;101131.28;;;7.68;41.91
78855;BME280;68206;59.956;30.234;2024-01-25T22:20:20;101128.72;;;7.64;41.27
78855;BME280;68206;59.956;30.234;2024-01-25T22:22:49;101137.50;;;7.67;41.50
78855;BME280;68206;59.956;30.234;2024-01-25T22:25:18;101136.59;;;7.67;40.96
78855;BME280;68206;59.956;30.234;2024-01-25T22:27:46;101133.09;;;7.66;40.71
78855;BME280;68206;59.956;30.234;2024-01-25T22:30:15;101138.38;;;7.66;40.68
78855;BME280;68206;59.956;30.234;2024-01-25T22:32:46;101141.00;;;7.66;41.04
78855;BME280;68206;59.956;30.234;2024-01-25T22:35:16;101150.69;;;7.66;40.79
78855;BME280;68206;59.956;30.234;2024-01-25T22:37:45;101146.28;;;7.66;41.17
78855;BME280;68206;59.956;30.234;2024-01-25T22:40:14;101155.97;;;7.66;40.66
78855;BME280;68206;59.956;30.234;2024-01-25T22:42:42;101165.66;;;7.65;40.77
78855;BME280;68206;59.956;30.234;2024-01-25T22:45:11;101166.53;;;7.64;41.14
78855;BME280;68206;59.956;30.234;2024-01-25T22:47:39;101177.09;;;7.64;40.77
78855;BME280;68206;59.956;30.234;2024-01-25T22:50:08;101166.53;;;7.64;40.45
78855;BME280;68206;59.956;30.234;2024-01-25T22:52:38;101173.59;;;7.64;41.05
78855;BME280;68206;59.956;30.234;2024-01-25T22:55:07;101179.75;;;7.63;40.27
78855;BME280;68206;59.956;30.234;2024-01-25T22:57:35;101193.81;;;7.63;40.78
78855;BME280;68206;59.956;30.234;2024-01-25T23:00:05;101192.06;;;7.62;40.41
78855;BME280;68206;59.956;30.234;2024-01-25T23:02:37;101187.72;;;7.60;40.56
78855;BME280;68206;59.956;30.234;2024-01-25T23:05:06;101187.72;;;7.58;40.46
78855;BME280;68206;59.956;30.234;2024-01-25T23:07:35;101199.16;;;7.59;40.80
78855;BME280;68206;59.956;30.234;2024-01-25T23:10:05;101192.13;;;7.58;40.19
78855;BME280;68206;59.956;30.234;2024-01-25T23:12:34;101195.66;;;7.57;40.89
78855;BME280;68206;59.956;30.234;2024-01-25T23:15:03;101197.41;;;7.56;40.17
78855;BME280;68206;59.956;30.234;2024-01-25T23:17:33;101210.59;;;7.56;40.44
78855;BME280;68206;59.956;30.234;2024-01-25T23:20:01;101217.66;;;7.56;40.65
78855;BME280;68206;59.956;30.234;2024-01-25T23:22:31;101204.50;;;7.54;40.25
78855;BME280;68206;59.956;30.234;2024-01-25T23:25:00;101204.50;;;7.54;40.14
78855;BME280;68206;59.956;30.234;2024-01-25T23:27:31;101219.44;;;7.52;40.09
78855;BME280;68206;59.956;30.234;2024-01-25T23:30:00;101218.56;;;7.53;39.81
78855;BME280;68206;59.956;30.234;2024-01-25T23:32:29;101230.88;;;7.53;40.36
78855;BME280;68206;59.956;30.234;2024-01-25T23:34:57;101235.28;;;7.52;40.23
78855;BME280;68206;59.956;30.234;2024-01-25T23:37:26;101239.69;;;7.50;40.02
78855;BME280;68206;59.956;30.234;2024-01-25T23:39:54;101247.63;;;7.50;39.56
78855;BME280;68206;59.956;30.234;2024-01-25T23:42:27;101249.41;;;7.48;40.13
78855;BME280;68206;59.956;30.234;2024-01-25T23:44:57;101256.44;;;7.48;40.53
78855;BME280;68206;59.956;30.234;2024-01-25T23:47:26;101243.31;;;7.43;40.06
78855;BME280;68206;59.956;30.234;2024-01-25T23:49:56;101254.69;;;7.47;39.41
78855;BME280;68206;59.956;30.234;2024-01-25T23:52:24;101265.25;;;7.44;39.98
78855;BME280;68206;59.956;30.234;2024-01-25T23:54:55;101263.50;;;7.46;40.15
78855;BME280;68206;59.956;30.234;2024-01-25T23:57:24;101278.44;;;7.47;40.59
78855;BME280;68206;59.956;30.234;2024-01-25T23:59:53;101268.78;;;7.46;39.33
